Time;durP1;ratioP1;P1;durP2;ratioP2;P2;SDS_P1;SDS_P2;PMS_P1;PMS_P2;Temp;Humidity;BMP_temperature;BMP_pressure;BME280_temperature;BME280_humidity;BME280_pressure;Samples;Min_cycle;Max_cycle;Signal;HPM_P1;HPM_P2
2022/07/05 00:01:38;;;;;;;5.30;4.85;;;16.40;92.40;;;;;;4935617;28;101824;-70
2022/07/05 00:04:04;;;;;;;4.28;3.83;;;16.40;92.50;;;;;;4935723;28;98961;-70
2022/07/05 00:06:31;;;;;;;3.50;3.22;;;16.40;92.50;;;;;;4935629;28;98530;-70
2022/07/05 00:08:58;;;;;;;3.95;2.92;;;16.40;92.70;;;;;;4935596;28;98540;-70
2022/07/05 00:11:25;;;;;;;4.45;2.95;;;16.30;92.70;;;;;;4935572;28;99277;-70
2022/07/05 00:13:52;;;;;;;5.63;4.35;;;16.30;92.90;;;;;;4953218;28;98775;-70
2022/07/05 00:16:19;;;;;;;3.92;3.63;;;16.20;93.00;;;;;;4935726;28;98527;-70
2022/07/05 00:18:46;;;;;;;3.67;3.38;;;16.20;93.10;;;;;;4953368;28;98750;-70
2022/07/05 00:21:13;;;;;;;3.30;2.72;;;16.10;93.20;;;;;;4934314;28;102794;-70
2022/07/05 00:23:40;;;;;;;5.15;4.18;;;16.20;93.30;;;;;;4934950;28;102319;-70
2022/07/05 00:26:07;;;;;;;4.55;4.18;;;16.10;93.30;;;;;;4935827;28;99299;-70
2022/07/05 00:28:34;;;;;;;3.60;3.30;;;16.00;93.40;;;;;;4935329;28;98595;-70
2022/07/05 00:31:01;;;;;;;5.93;3.20;;;16.00;93.50;;;;;;4952897;28;99293;-70
2022/07/05 00:33:28;;;;;;;4.30;3.72;;;16.00;93.50;;;;;;4934714;28;101631;-70
2022/07/05 00:35:55;;;;;;;4.20;3.90;;;16.00;93.60;;;;;;4952918;28;98547;-70
2022/07/05 00:38:23;;;;;;;3.70;3.40;;;15.90;93.60;;;;;;4935271;28;97863;-70
2022/07/05 00:40:50;;;;;;;4.63;4.32;;;15.90;93.60;;;;;;4934950;28;100285;-70
2022/07/05 00:43:17;;;;;;;5.07;4.50;;;15.80;93.70;;;;;;4952418;28;99005;-70
2022/07/05 00:45:44;;;;;;;4.40;3.90;;;15.80;93.70;;;;;;4935007;28;99187;-71
2022/07/05 00:48:11;;;;;;;3.83;3.15;;;15.80;93.80;;;;;;4952627;28;98497;-70
2022/07/05 00:50:40;;;;;;;4.80;4.28;;;15.80;93.90;;;;;;4934999;28;99336;-70
2022/07/05 00:53:11;;;;;;;6.50;3.58;;;15.70;94.00;;;;;;4934737;28;101605;-70
2022/07/05 00:55:38;;;;;;;4.00;3.38;;;15.70;94.00;;;;;;4935081;28;98570;-70
2022/07/05 00:58:05;;;;;;;3.75;3.13;;;15.70;94.00;;;;;;4953209;28;98975;-70
2022/07/05 01:00:32;;;;;;;5.60;3.60;;;15.60;94.10;;;;;;4955270;28;100206;-70
2022/07/05 01:02:59;;;;;;;4.13;3.17;;;15.60;94.30;;;;;;4938889;28;98963;-70
2022/07/05 01:05:26;;;;;;;4.13;3.75;;;15.50;94.30;;;;;;4938349;28;98621;-70
2022/07/05 01:07:54;;;;;;;5.32;4.20;;;15.50;94.40;;;;;;4938643;28;98947;-70
2022/07/05 01:10:21;;;;;;;5.55;4.22;;;15.50;94.40;;;;;;4954993;28;100025;-70
2022/07/05 01:12:48;;;;;;;5.50;4.40;;;15.50;94.50;;;;;;4937999;28;99899;-70
2022/07/05 01:15:16;;;;;;;4.90;3.60;;;15.50;94.50;;;;;;4938448;28;98614;-70
2022/07/05 01:17:43;;;;;;;5.38;4.97;;;15.40;94.50;;;;;;4955784;28;98634;-70
2022/07/05 01:20:10;;;;;;;3.95;3.60;;;15.40;94.50;;;;;;4937772;28;101879;-70
2022/07/05 01:22:53;;;;;;;4.50;3.65;;;15.40;94.60;;;;;;4937898;28;99066;-70
2022/07/05 01:25:22;;;;;;;4.30;3.83;;;15.40;94.60;;;;;;4956113;28;98775;-70
2022/07/05 01:27:49;;;;;;;3.78;3.40;;;15.30;94.70;;;;;;4956032;28;98271;-70
2022/07/05 01:30:17;;;;;;;4.68;4.32;;;15.30;94.80;;;;;;4937683;28;101991;-70
2022/07/05 01:32:44;;;;;;;4.68;4.15;;;15.20;94.80;;;;;;4955092;28;99067;-70
2022/07/05 01:35:13;;;;;;;4.72;3.40;;;15.20;94.90;;;;;;4937753;28;99664;-70
2022/07/05 01:37:40;;;;;;;4.05;3.65;;;15.20;94.90;;;;;;4937482;28;99471;-70
2022/07/05 01:40:07;;;;;;;6.00;3.38;;;15.20;95.20;;;;;;4955115;28;99465;-70
2022/07/05 01:42:34;;;;;;;4.75;4.35;;;15.10;95.00;;;;;;4954796;28;99120;-70
2022/07/05 01:45:02;;;;;;;5.75;4.90;;;15.10;95.00;;;;;;4955497;28;98483;-70
2022/07/05 01:47:29;;;;;;;5.25;4.00;;;15.10;95.10;;;;;;4937658;28;98557;-70
2022/07/05 01:49:58;;;;;;;6.82;4.35;;;15.10;95.10;;;;;;4937453;28;101749;-70
2022/07/05 01:52:29;;;;;;;5.82;4.63;;;15.10;95.20;;;;;;4937662;28;101498;-70
2022/07/05 01:54:57;;;;;;;4.82;4.15;;;15.10;95.30;;;;;;4937655;28;98556;-70
2022/07/05 01:57:24;;;;;;;4.70;4.30;;;15.00;95.30;;;;;;4937531;28;98603;-70
2022/07/05 01:59:51;;;;;;;6.10;4.88;;;15.00;95.30;;;;;;4936756;28;99788;-70
2022/07/05 02:02:18;;;;;;;4.75;4.32;;;15.00;95.30;;;;;;4921437;28;102209;-70
2022/07/05 02:04:47;;;;;;;5.13;4.72;;;15.00;95.40;;;;;;4955053;28;98530;-70
2022/07/05 02:07:15;;;;;;;4.90;4.50;;;15.00;95.50;;;;;;4921469;28;98589;-70
2022/07/05 02:09:43;;;;;;;5.40;4.95;;;14.90;95.50;;;;;;4919913;28;101520;-70
2022/07/05 02:12:10;;;;;;;5.43;4.53;;;14.90;95.60;;;;;;4936939;28;101474;-70
2022/07/05 02:14:39;;;;;;;5.35;5.03;;;14.90;95.60;;;;;;4921113;28;99164;-70
2022/07/05 02:17:12;;;;;;;6.78;4.68;;;14.90;95.70;;;;;;4937859;28;97914;-70
2022/07/05 02:19:40;;;;;;;5.03;4.20;;;14.80;95.80;;;;;;4936821;28;101761;-70
2022/07/05 02:22:08;;;;;;;7.30;5.60;;;14.80;95.90;;;;;;4936671;28;101356;-70
2022/07/05 02:24:36;;;;;;;5.38;4.60;;;14.80;95.80;;;;;;4920947;28;99911;-70
2022/07/05 02:27:18;;;;;;;5.97;4.35;;;14.80;95.90;;;;;;4923175;28;98740;-70
2022/07/05 02:29:45;;;;;;;6.45;5.93;;;14.80;96.00;;;;;;4936735;28;101350;-70
2022/07/05 02:32:14;;;;;;;6.82;6.13;;;14.80;96.00;;;;;;4936700;28;101542;-70
2022/07/05 02:34:41;;;;;;;6.93;6.07;;;14.70;96.00;;;;;;4936687;28;98504;-70
2022/07/05 02:37:09;;;;;;;5.90;5.28;;;14.70;96.00;;;;;;4937056;28;98650;-70
2022/07/05 02:39:36;;;;;;;7.78;6.57;;;14.70;96.10;;;;;;4954306;28;99268;-70
2022/07/05 02:42:05;;;;;;;6.18;5.65;;;14.70;96.10;;;;;;4937042;28;101328;-70
2022/07/05 02:44:33;;;;;;;4.65;4.25;;;14.60;96.10;;;;;;4936951;28;99202;-70
2022/07/05 02:47:00;;;;;;;6.97;5.28;;;14.60;96.20;;;;;;4936737;28;98692;-70
2022/07/05 02:49:29;;;;;;;6.50;5.90;;;14.60;96.30;;;;;;4936386;28;102297;-70
2022/07/05 02:51:57;;;;;;;6.55;6.00;;;14.50;96.30;;;;;;4936224;28;101745;-70
2022/07/05 02:54:25;;;;;;;5.63;5.05;;;14.50;96.30;;;;;;4936746;28;98641;-70
2022/07/05 02:56:53;;;;;;;5.45;4.95;;;14.50;96.40;;;;;;4936585;28;99500;-70
2022/07/05 02:59:20;;;;;;;6.22;5.25;;;14.40;96.50;;;;;;4935808;28;101505;-70
2022/07/05 03:01:48;;;;;;;5.25;4.75;;;14.40;96.50;;;;;;4953755;28;99014;-70
2022/07/05 03:04:17;;;;;;;7.57;6.15;;;14.40;96.50;;;;;;4936715;28;98644;-70
2022/07/05 03:06:50;;;;;;;7.15;5.28;;;14.30;96.50;;;;;;4936808;28;97780;-70
2022/07/05 03:09:21;;;;;;;6.88;6.28;;;14.30;96.50;;;;;;4936455;28;101573;-70
2022/07/05 03:11:48;;;;;;;6.63;5.97;;;14.20;96.50;;;;;;4919809;28;101350;-70
2022/07/05 03:14:15;;;;;;;6.30;5.80;;;14.30;96.60;;;;;;4936368;28;99368;-70
2022/07/05 03:16:44;;;;;;;6.13;5.72;;;14.20;96.70;;;;;;4936385;28;98628;-70
2022/07/05 03:19:12;;;;;;;6.78;6.15;;;14.20;96.80;;;;;;4935966;28;101371;-70
2022/07/05 03:21:39;;;;;;;5.82;5.22;;;14.20;96.80;;;;;;4935715;28;101814;-70
2022/07/05 03:24:06;;;;;;;7.55;6.78;;;14.20;96.90;;;;;;4936416;28;98717;-70
2022/07/05 03:26:35;;;;;;;6.40;5.70;;;14.20;97.00;;;;;;4936438;28;98581;-70
2022/07/05 03:29:02;;;;;;;7.30;6.57;;;14.20;97.20;;;;;;4935650;28;101787;-70
2022/07/05 03:31:30;;;;;;;7.72;6.50;;;14.20;97.20;;;;;;4936313;28;100083;-70
2022/07/05 03:33:58;;;;;;;8.07;7.28;;;14.20;97.30;;;;;;4936066;28;99056;-70
2022/07/05 03:36:25;;;;;;;7.07;6.30;;;14.20;97.40;;;;;;4936267;28;98568;-70
2022/07/05 03:38:52;;;;;;;7.82;7.00;;;14.20;97.50;;;;;;4935178;28;101072;-70
2022/07/05 03:41:20;;;;;;;7.07;6.50;;;14.20;97.50;;;;;;4935612;28;102025;-70
2022/07/05 03:43:48;;;;;;;6.97;6.38;;;14.20;97.50;;;;;;4936010;28;98583;-70
2022/07/05 03:46:15;;;;;;;7.45;6.75;;;14.20;97.60;;;;;;4919977;28;98654;-70
2022/07/05 03:48:42;;;;;;;9.07;6.35;;;14.20;97.60;;;;;;4953207;28;99349;-70
2022/07/05 03:51:12;;;;;;;9.55;6.95;;;14.30;97.60;;;;;;4919858;28;101274;-70
2022/07/05 03:53:39;;;;;;;9.45;8.52;;;14.30;97.50;;;;;;4936244;28;99201;-70
2022/07/05 03:56:06;;;;;;;7.35;5.88;;;14.30;97.50;;;;;;4936155;28;97896;-70
2022/07/05 03:58:34;;;;;;;5.78;5.13;;;14.50;97.60;;;;;;4935116;28;101792;-70
2022/07/05 04:01:03;;;;;;;6.63;6.03;;;14.90;97.60;;;;;;4935653;28;98542;-70
2022/07/05 04:03:30;;;;;;;6.35;5.82;;;15.60;96.90;;;;;;4919548;28;99248;-70
2022/07/05 04:05:59;;;;;;;7.07;6.03;;;16.40;95.90;;;;;;4935545;28;98579;-70
2022/07/05 04:08:27;;;;;;;8.15;6.28;;;17.00;94.60;;;;;;4935164;28;101295;-70
2022/07/05 04:10:55;;;;;;;7.60;7.00;;;17.50;93.60;;;;;;4935005;28;101523;-70
2022/07/05 04:13:22;;;;;;;7.63;6.90;;;17.70;92.90;;;;;;4935846;28;98553;-70
2022/07/05 04:15:53;;;;;;;7.75;7.15;;;17.80;92.60;;;;;;4935374;28;98600;-70
2022/07/05 04:18:20;;;;;;;7.70;6.78;;;17.70;92.60;;;;;;4935166;28;101683;-70
2022/07/05 04:20:47;;;;;;;6.47;5.88;;;17.60;92.60;;;;;;4919237;28;101572;-70
2022/07/05 04:23:14;;;;;;;7.05;6.28;;;17.40;92.80;;;;;;4919351;28;98577;-70
2022/07/05 04:25:41;;;;;;;7.80;7.07;;;17.40;92.80;;;;;;4935842;28;98565;-71
2022/07/05 04:28:44;;;;;;;6.90;6.30;;;17.30;92.80;;;;;;4948586;28;100814;-70
2022/07/05 04:31:14;;;;;;;8.60;7.20;;;17.10;92.90;;;;;;4935058;28;101971;-70
2022/07/05 04:33:45;;;;;;;7.18;6.55;;;17.10;93.10;;;;;;4937256;28;98538;-70
2022/07/05 04:36:18;;;;;;;7.60;6.88;;;17.00;93.10;;;;;;4923638;28;99260;-70
2022/07/05 04:38:46;;;;;;;8.23;7.47;;;16.90;93.20;;;;;;4938380;28;101958;-70
2022/07/05 04:41:13;;;;;;;7.55;6.63;;;16.90;93.30;;;;;;4938358;28;101565;-70
2022/07/05 04:43:40;;;;;;;7.55;6.85;;;16.80;93.50;;;;;;4938897;28;98653;-71
2022/07/05 04:46:11;;;;;;;8.27;7.45;;;16.70;93.60;;;;;;4923255;28;97919;-70
2022/07/05 04:48:38;;;;;;;7.35;6.68;;;16.70;93.80;;;;;;4938174;28;101518;-70
2022/07/05 04:51:07;;;;;;;7.93;7.22;;;16.60;93.90;;;;;;4937816;28;101485;-70
2022/07/05 04:53:34;;;;;;;8.60;7.78;;;16.50;94.00;;;;;;4922220;28;99242;-70
2022/07/05 04:56:01;;;;;;;7.60;6.90;;;16.50;94.10;;;;;;4955826;28;98479;-70
2022/07/05 04:58:28;;;;;;;7.63;6.55;;;16.50;94.20;;;;;;4955307;28;99394;-70
2022/07/05 05:00:55;;;;;;;7.28;6.60;;;16.50;94.30;;;;;;4937735;28;98941;-70
2022/07/05 05:03:22;;;;;;;9.40;7.57;;;16.50;94.40;;;;;;4956142;28;98411;-70
2022/07/05 05:05:49;;;;;;;8.05;7.35;;;16.50;94.50;;;;;;4955740;28;98488;-70
2022/07/05 05:08:16;;;;;;;8.00;6.35;;;16.60;94.60;;;;;;4955441;28;99249;-70
2022/07/05 05:10:43;;;;;;;7.55;6.88;;;16.70;94.50;;;;;;4938107;28;103301;-71
2022/07/05 05:13:10;;;;;;;6.75;6.18;;;16.80;94.60;;;;;;4955402;28;98501;-70
2022/07/05 05:15:37;;;;;;;6.90;6.30;;;17.00;94.60;;;;;;4937952;28;98628;-70
2022/07/05 05:18:04;;;;;;;6.68;6.00;;;17.20;94.40;;;;;;4954391;28;112597;-70
2022/07/05 05:20:31;;;;;;;9.02;7.85;;;17.30;94.40;;;;;;4937643;28;102529;-70
2022/07/05 05:23:01;;;;;;;7.15;6.32;;;17.50;94.30;;;;;;4937763;28;98503;-70
2022/07/05 05:25:30;;;;;;;6.88;6.38;;;17.60;94.20;;;;;;4955589;28;98989;-70
2022/07/05 05:27:57;;;;;;;7.50;6.72;;;17.70;94.00;;;;;;4937430;28;99185;-70
2022/07/05 05:30:24;;;;;;;8.38;7.50;;;17.90;93.90;;;;;;4937743;28;99009;-70
2022/07/05 05:32:51;;;;;;;6.90;6.30;;;18.00;93.80;;;;;;4955548;28;98544;-70
2022/07/05 05:35:20;;;;;;;6.70;6.20;;;18.10;93.70;;;;;;4938179;28;97757;-70
2022/07/05 05:37:52;;;;;;;7.38;6.78;;;18.10;93.50;;;;;;4921356;28;102021;-70
2022/07/05 05:40:21;;;;;;;6.40;5.80;;;18.20;93.50;;;;;;4954928;28;99048;-70
2022/07/05 05:42:48;;;;;;;7.22;5.57;;;18.10;93.50;;;;;;4954860;28;99973;-70
2022/07/05 05:45:15;;;;;;;7.57;5.45;;;18.20;93.60;;;;;;4936514;28;98738;-70
2022/07/05 05:47:53;;;;;;;6.30;5.75;;;18.30;93.40;;;;;;4954721;28;99341;-70
2022/07/05 05:50:22;;;;;;;6.07;5.57;;;18.60;93.20;;;;;;4937465;28;99403;-71
2022/07/05 05:52:49;;;;;;;6.05;5.45;;;18.70;93.10;;;;;;4937437;28;98641;-70
2022/07/05 05:55:17;;;;;;;7.47;5.50;;;18.90;92.80;;;;;;4955043;28;98542;-70
2022/07/05 05:57:45;;;;;;;6.28;5.75;;;19.00;92.60;;;;;;4954520;28;99378;-70
2022/07/05 06:00:12;;;;;;;5.65;5.15;;;19.20;92.50;;;;;;4954837;28;99072;-70
2022/07/05 06:02:39;;;;;;;6.72;6.22;;;19.30;92.20;;;;;;4954971;28;98541;-71
2022/07/05 06:05:07;;;;;;;6.32;4.78;;;19.40;92.20;;;;;;4954780;28;98583;-71
2022/07/05 06:07:48;;;;;;;4.80;4.40;;;19.60;92.10;;;;;;4954214;28;100100;-70
2022/07/05 06:10:24;;;;;;;5.95;4.63;;;19.80;91.90;;;;;;4936661;28;102832;-70
2022/07/05 06:12:52;;;;;;;5.50;4.65;;;20.10;91.60;;;;;;4954970;28;98577;-71
2022/07/05 06:15:20;;;;;;;5.15;4.75;;;20.20;91.40;;;;;;4954383;28;98488;-70
2022/07/05 06:17:47;;;;;;;4.80;4.32;;;20.30;91.10;;;;;;4936750;28;101790;-71
2022/07/05 06:20:19;;;;;;;5.57;4.10;;;20.30;91.10;;;;;;4954258;28;99739;-70
2022/07/05 06:22:47;;;;;;;4.75;4.28;;;20.30;91.00;;;;;;4954972;28;98500;-70
2022/07/05 06:25:14;;;;;;;5.25;4.13;;;20.20;90.90;;;;;;4954764;28;97768;-71
2022/07/05 06:27:53;;;;;;;6.55;4.93;;;20.20;90.80;;;;;;4954350;28;99395;-70
2022/07/05 06:30:22;;;;;;;4.57;4.18;;;20.20;91.10;;;;;;4920041;28;104969;-71
2022/07/05 06:32:50;;;;;;;4.78;4.47;;;20.20;90.90;;;;;;4936876;28;99348;-70
2022/07/05 06:35:18;;;;;;;4.20;3.70;;;20.20;90.80;;;;;;4936974;28;98583;-70
2022/07/05 06:37:45;;;;;;;6.70;2.90;;;20.20;90.80;;;;;;4936507;28;102079;-70
2022/07/05 06:40:16;;;;;;;4.25;3.95;;;20.30;90.70;;;;;;4920182;28;101527;-71
2022/07/05 06:42:44;;;;;;;4.15;3.47;;;20.30;90.40;;;;;;4954472;28;98483;-70
2022/07/05 06:45:13;;;;;;;3.20;2.90;;;20.40;90.20;;;;;;4936360;28;98660;-70
2022/07/05 06:47:40;;;;;;;2.63;2.42;;;20.50;90.10;;;;;;4933223;28;112546;-70
2022/07/05 06:50:08;;;;;;;5.68;2.30;;;20.60;89.90;;;;;;4936296;28;100258;-70
2022/07/05 06:52:35;;;;;;;2.67;1.92;;;20.70;89.40;;;;;;4936871;28;98845;-70
2022/07/05 06:55:03;;;;;;;5.10;3.25;;;20.90;88.90;;;;;;4954185;28;98398;-71
2022/07/05 06:57:30;;;;;;;5.10;2.30;;;21.10;87.70;;;;;;4934796;28;102775;-70
2022/07/05 06:59:59;;;;;;;3.78;2.67;;;21.20;87.00;;;;;;4953749;28;99661;-71
2022/07/05 07:02:45;;;;;;;2.50;2.30;;;21.30;86.80;;;;;;4939901;28;98563;-70
2022/07/05 07:05:12;;;;;;;3.53;1.73;;;21.20;87.20;;;;;;4920539;28;98994;-70
2022/07/05 07:10:26;;;;;;;3.75;1.70;;;21.10;86.10;;;;;;4953472;28;99049;-70
2022/07/05 07:12:59;;;;;;;3.53;1.77;;;21.10;86.00;;;;;;4921096;28;98432;-71
2022/07/05 07:15:27;;;;;;;4.65;1.80;;;21.10;85.80;;;;;;4954326;28;97809;-70
2022/07/05 07:17:54;;;;;;;2.72;2.47;;;21.10;85.70;;;;;;4936368;28;99485;-71
2022/07/05 07:20:21;;;;;;;3.15;2.03;;;21.10;85.30;;;;;;4953304;28;99085;-70
2022/07/05 07:22:48;;;;;;;5.70;1.80;;;21.00;85.00;;;;;;4936042;28;99334;-70
2022/07/05 07:25:15;;;;;;;2.25;1.55;;;21.10;84.90;;;;;;4953651;28;98531;-70
2022/07/05 07:27:42;;;;;;;2.97;2.35;;;21.10;85.60;;;;;;4953481;28;99217;-70
2022/07/05 07:30:14;;;;;;;2.97;1.70;;;21.20;85.80;;;;;;4953387;28;98914;-71
2022/07/05 07:32:42;;;;;;;2.45;1.48;;;21.20;84.90;;;;;;4936664;28;98581;-71
2022/07/05 07:35:10;;;;;;;4.10;1.70;;;21.20;83.50;;;;;;4936186;28;98532;-70
2022/07/05 07:37:37;;;;;;;3.47;1.70;;;21.30;83.20;;;;;;4935595;28;110009;-71
2022/07/05 07:40:08;;;;;;;2.97;1.20;;;21.30;82.80;;;;;;4936257;28;99117;-70
2022/07/05 07:42:35;;;;;;;4.10;1.20;;;21.50;81.90;;;;;;4935573;28;99075;-71
2022/07/05 07:45:03;;;;;;;2.13;1.45;;;21.60;81.80;;;;;;4953499;28;98533;-70
2022/07/05 07:47:35;;;;;;;2.80;1.10;;;22.00;81.20;;;;;;4919092;28;100067;-71
2022/07/05 07:50:03;;;;;;;2.97;1.48;;;22.30;80.20;;;;;;4936022;28;99808;-71
2022/07/05 07:52:33;;;;;;;2.33;2.08;;;22.60;79.60;;;;;;4953238;28;98597;-71
2022/07/05 07:55:01;;;;;;;1.88;1.10;;;22.90;78.30;;;;;;4936295;28;98624;-70
2022/07/05 07:57:28;;;;;;;4.70;2.05;;;23.10;76.20;;;;;;4935358;28;99143;-71
2022/07/05 07:59:56;;;;;;;4.35;2.85;;;23.20;75.70;;;;;;4935391;28;99079;-71
2022/07/05 08:02:23;;;;;;;2.58;1.20;;;23.40;75.30;;;;;;4952944;28;98552;-71
2022/07/05 08:04:51;;;;;;;1.90;1.30;;;23.50;75.60;;;;;;4936438;28;98219;-71
2022/07/05 08:07:19;;;;;;;3.72;1.70;;;23.50;74.70;;;;;;4952385;28;99505;-71
2022/07/05 08:09:46;;;;;;;1.83;1.45;;;23.50;73.90;;;;;;4952430;28;99031;-71
2022/07/05 08:12:13;;;;;;;5.97;1.40;;;23.50;73.40;;;;;;4952894;28;99230;-71
2022/07/05 08:14:40;;;;;;;2.80;2.53;;;23.90;73.30;;;;;;4935118;28;98555;-71
2022/07/05 08:17:08;;;;;;;5.57;2.33;;;24.40;72.70;;;;;;4935320;28;99267;-71
2022/07/05 08:22:22;;;;;;;3.22;1.40;;;25.80;69.00;;;;;;4953020;28;98485;-71
2022/07/05 08:24:50;;;;;;;4.50;1.55;;;26.30;66.50;;;;;;4952915;28;98483;-71
2022/07/05 08:27:17;;;;;;;2.90;1.98;;;26.40;64.50;;;;;;4952042;28;107298;-71
2022/07/05 08:29:44;;;;;;;1.30;0.90;;;26.40;64.10;;;;;;4952961;28;99146;-71
2022/07/05 08:32:11;;;;;;;2.47;1.90;;;26.90;62.50;;;;;;4935644;28;98587;-71
2022/07/05 08:34:38;;;;;;;1.40;0.80;;;27.50;61.50;;;;;;4952755;28;98538;-71
2022/07/05 08:37:06;;;;;;;2.13;1.20;;;27.80;60.00;;;;;;4952184;28;100086;-71
2022/07/05 08:39:40;;;;;;;1.95;1.33;;;27.80;58.50;;;;;;4952152;28;99646;-71
2022/07/05 08:42:10;;;;;;;2.00;1.35;;;27.40;58.80;;;;;;4935062;28;98595;-71
2022/07/05 08:44:39;;;;;;;3.20;1.73;;;27.40;59.20;;;;;;4952380;28;98566;-71
2022/07/05 08:47:10;;;;;;;2.83;1.95;;;27.20;58.70;;;;;;4934697;28;101910;-71
2022/07/05 08:49:40;;;;;;;2.17;2.00;;;27.20;59.60;;;;;;4934522;28;100564;-71
2022/07/05 08:52:10;;;;;;;1.70;1.20;;;27.20;59.40;;;;;;4952798;28;98418;-71
2022/07/05 08:54:37;;;;;;;2.17;1.00;;;27.30;59.70;;;;;;4953025;28;98292;-71
2022/07/05 08:57:05;;;;;;;1.20;1.05;;;27.30;58.90;;;;;;4952136;28;99329;-71
2022/07/05 08:59:38;;;;;;;2.55;1.23;;;27.30;58.50;;;;;;4952079;28;99086;-71
2022/07/05 09:02:05;;;;;;;2.67;1.60;;;27.40;58.00;;;;;;4952392;28;99334;-71
2022/07/05 09:04:37;;;;;;;2.92;2.65;;;27.60;57.70;;;;;;4952194;28;98600;-71
2022/07/05 09:07:07;;;;;;;4.10;1.53;;;28.00;56.60;;;;;;4952008;28;99224;-72
2022/07/05 09:09:42;;;;;;;3.15;1.95;;;28.40;55.40;;;;;;4934187;28;101547;-71
2022/07/05 09:12:12;;;;;;;2.40;1.10;;;29.00;54.10;;;;;;4934797;28;98620;-71
2022/07/05 09:14:50;;;;;;;1.80;0.90;;;29.30;53.00;;;;;;4934733;28;98605;-71
2022/07/05 09:17:17;;;;;;;1.73;1.25;;;29.20;52.80;;;;;;4934636;28;99343;-71
2022/07/05 09:20:05;;;;;;;3.95;0.95;;;29.00;52.50;;;;;;4953805;28;99110;-71
2022/07/05 09:22:52;;;;;;;2.22;2.03;;;28.80;52.00;;;;;;4955637;28;98537;-71
2022/07/05 09:25:27;;;;;;;3.00;1.33;;;28.80;53.00;;;;;;4938616;28;98601;-71
2022/07/05 09:27:55;;;;;;;3.55;1.73;;;28.60;51.80;;;;;;4955052;28;100146;-71
2022/07/05 09:30:34;;;;;;;1.58;0.90;;;28.30;52.80;;;;;;4954654;28;113666;-71
2022/07/05 09:33:02;;;;;;;3.20;2.17;;;28.20;51.50;;;;;;4937992;28;98769;-71
2022/07/05 09:35:33;;;;;;;3.25;0.90;;;27.80;51.70;;;;;;4955179;28;98541;-71
2022/07/05 09:38:03;;;;;;;3.53;1.20;;;27.60;52.60;;;;;;4955426;28;99360;-71
2022/07/05 09:40:44;;;;;;;3.72;1.30;;;27.40;52.70;;;;;;4954850;28;100244;-71
2022/07/05 09:43:14;;;;;;;2.38;1.00;;;27.30;52.70;;;;;;4955696;28;98538;-71
2022/07/05 09:45:58;;;;;;;1.98;1.63;;;27.10;53.40;;;;;;4955408;28;97911;-71
2022/07/05 09:48:27;;;;;;;4.30;1.17;;;27.00;53.60;;;;;;4954984;28;99582;-71
2022/07/05 09:51:13;;;;;;;2.63;1.08;;;26.70;54.00;;;;;;4937343;28;102694;-71
2022/07/05 09:54:01;;;;;;;1.33;1.00;;;26.70;54.90;;;;;;4955024;28;99367;-71
2022/07/05 09:56:43;;;;;;;1.85;1.00;;;26.70;54.90;;;;;;4955381;28;98455;-71
2022/07/05 09:59:19;;;;;;;1.58;1.25;;;26.70;54.90;;;;;;4954323;28;99325;-71
2022/07/05 10:01:47;;;;;;;1.65;1.27;;;26.70;55.50;;;;;;4954743;28;99447;-71
2022/07/05 10:04:14;;;;;;;1.98;1.75;;;26.60;55.70;;;;;;4937455;28;98603;-71
2022/07/05 10:06:42;;;;;;;2.63;2.13;;;26.50;56.10;;;;;;4955093;28;98504;-71
2022/07/05 10:09:11;;;;;;;2.70;1.52;;;26.60;56.40;;;;;;4920746;28;101990;-71
2022/07/05 10:11:40;;;;;;;2.28;1.23;;;26.70;56.10;;;;;;4936823;28;104072;-71
2022/07/05 10:14:15;;;;;;;1.67;1.10;;;26.90;55.50;;;;;;4937246;28;98581;-72
2022/07/05 10:16:47;;;;;;;5.25;1.17;;;26.90;55.30;;;;;;4937122;28;98617;-71
2022/07/05 10:19:19;;;;;;;4.78;1.98;;;26.70;56.10;;;;;;4954568;28;100124;-71
2022/07/05 10:21:46;;;;;;;4.20;1.67;;;26.50;56.90;;;;;;4954020;28;99717;-71
2022/07/05 10:24:36;;;;;;;2.58;1.38;;;26.30;57.00;;;;;;4923801;28;98682;-71
2022/07/05 10:27:07;;;;;;;2.22;1.92;;;26.00;57.20;;;;;;4954524;28;98501;-71
2022/07/05 10:29:36;;;;;;;2.15;1.20;;;26.00;57.80;;;;;;4936540;28;101881;-71
2022/07/05 10:32:05;;;;;;;2.78;2.10;;;26.00;58.00;;;;;;4953567;28;98965;-71
2022/07/05 10:34:33;;;;;;;1.00;0.90;;;26.10;57.80;;;;;;4937070;28;99380;-71
2022/07/05 10:37:21;;;;;;;1.45;0.90;;;26.20;57.70;;;;;;4940477;28;97768;-71
2022/07/05 10:39:48;;;;;;;2.22;1.33;;;26.40;57.40;;;;;;4954046;28;99317;-71
2022/07/05 10:42:16;;;;;;;3.25;1.00;;;26.60;56.90;;;;;;4954524;28;99111;-71
2022/07/05 10:44:43;;;;;;;2.53;1.10;;;26.70;56.40;;;;;;4920602;28;99330;-71
2022/07/05 10:47:11;;;;;;;4.28;1.70;;;26.80;56.00;;;;;;4920572;28;101917;-71
2022/07/05 10:49:40;;;;;;;3.35;2.35;;;26.90;55.50;;;;;;4953909;28;99214;-71
2022/07/05 10:52:24;;;;;;;3.20;1.58;;;26.90;55.10;;;;;;4954003;28;99065;-71
2022/07/05 10:55:19;;;;;;;3.60;1.27;;;27.00;55.10;;;;;;4954301;28;98589;-71
2022/07/05 10:58:19;;;;;;;2.75;2.53;;;27.10;54.50;;;;;;4953892;28;98510;-71
2022/07/05 11:00:48;;;;;;;1.95;0.90;;;27.00;53.80;;;;;;4953634;28;99429;-72
2022/07/05 11:03:32;;;;;;;1.77;1.58;;;27.00;54.70;;;;;;4954216;28;98999;-72
2022/07/05 11:06:01;;;;;;;3.10;1.10;;;27.20;54.70;;;;;;4936596;28;98569;-72
2022/07/05 11:08:28;;;;;;;2.05;1.50;;;27.30;55.00;;;;;;4920803;28;98553;-72
2022/07/05 11:11:10;;;;;;;4.10;2.67;;;27.40;54.20;;;;;;4953445;28;99949;-72
2022/07/05 11:13:47;;;;;;;1.93;1.23;;;27.60;53.20;;;;;;4936631;28;99807;-72
2022/07/05 11:16:24;;;;;;;3.35;1.23;;;27.60;53.30;;;;;;4921083;28;98645;-72
2022/07/05 11:19:12;;;;;;;1.23;1.10;;;27.50;52.90;;;;;;4954097;28;98438;-72
2022/07/05 11:21:59;;;;;;;2.50;1.90;;;27.30;53.30;;;;;;4936208;28;99382;-72
2022/07/05 11:24:31;;;;;;;3.78;1.20;;;27.20;53.40;;;;;;4922437;28;101547;-72
2022/07/05 11:26:59;;;;;;;2.92;1.30;;;27.00;53.40;;;;;;4936491;28;98506;-72
2022/07/05 11:29:46;;;;;;;3.33;1.20;;;26.80;53.60;;;;;;4954208;28;97762;-70
2022/07/05 11:32:15;;;;;;;4.03;2.28;;;26.80;54.00;;;;;;4936236;28;99271;-70
2022/07/05 11:34:44;;;;;;;4.15;1.30;;;26.60;54.80;;;;;;4953547;28;98985;-70
2022/07/05 11:37:14;;;;;;;4.03;1.45;;;26.70;54.80;;;;;;4953252;28;99358;-70
2022/07/05 11:40:11;;;;;;;3.65;2.00;;;26.70;55.30;;;;;;4953849;28;98460;-70
2022/07/05 11:42:49;;;;;;;3.20;1.13;;;26.80;55.10;;;;;;4952275;28;99418;-70
2022/07/05 11:45:17;;;;;;;3.28;1.48;;;26.90;55.30;;;;;;4953322;28;99089;-72
2022/07/05 11:47:44;;;;;;;3.30;1.52;;;26.80;55.30;;;;;;4953775;28;98579;-72
2022/07/05 11:50:12;;;;;;;2.92;1.20;;;26.80;55.40;;;;;;4953701;28;98532;-72
2022/07/05 11:52:39;;;;;;;2.33;1.20;;;26.90;55.20;;;;;;4935857;28;99262;-72
2022/07/05 11:55:10;;;;;;;3.17;1.83;;;26.80;55.30;;;;;;4935731;28;101619;-72
2022/07/05 11:57:49;;;;;;;4.97;1.63;;;26.90;55.20;;;;;;4953682;28;98414;-72
2022/07/05 12:00:27;;;;;;;3.47;2.25;;;27.00;55.30;;;;;;4935337;28;98698;-72
2022/07/05 12:02:54;;;;;;;2.40;1.77;;;27.10;55.60;;;;;;4952690;28;100019;-72
2022/07/05 12:05:21;;;;;;;3.97;3.15;;;27.20;55.40;;;;;;4952794;28;107296;-72
2022/07/05 12:07:50;;;;;;;3.35;1.58;;;27.40;55.30;;;;;;4953445;28;98404;-72
2022/07/05 12:13:24;;;;;;;2.08;1.60;;;27.80;53.10;;;;;;4935315;28;101780;-72
2022/07/05 12:16:00;;;;;;;1.88;1.73;;;28.00;53.00;;;;;;4934969;28;105902;-72
2022/07/05 12:18:28;;;;;;;2.80;2.03;;;28.00;52.80;;;;;;4953592;28;98512;-72
2022/07/05 12:20:54;;;;;;;4.38;1.50;;;28.00;53.60;;;;;;4953215;28;97681;-72
2022/07/05 12:23:27;;;;;;;3.60;1.30;;;28.20;52.80;;;;;;4919232;28;101911;-72
2022/07/05 12:25:58;;;;;;;3.23;1.40;;;28.20;52.30;;;;;;4952887;28;99085;-72
2022/07/05 12:28:25;;;;;;;3.42;2.10;;;28.10;51.70;;;;;;4935355;28;99269;-72
2022/07/05 12:30:55;;;;;;;2.53;1.33;;;28.00;51.60;;;;;;4935506;28;98492;-72
2022/07/05 12:33:22;;;;;;;1.42;1.33;;;27.80;50.70;;;;;;4952414;28;99342;-72
2022/07/05 12:35:50;;;;;;;1.35;1.13;;;27.50;50.10;;;;;;4952986;28;99030;-72
2022/07/05 12:38:20;;;;;;;3.30;2.35;;;27.40;50.40;;;;;;4952733;28;98423;-72
2022/07/05 12:41:07;;;;;;;2.75;2.55;;;27.50;51.00;;;;;;4952826;28;99089;-72
2022/07/05 12:43:54;;;;;;;2.85;1.13;;;27.60;51.40;;;;;;4935244;28;99388;-72
2022/07/05 12:46:42;;;;;;;2.35;1.63;;;27.60;51.10;;;;;;4953086;28;98903;-72
2022/07/05 12:49:10;;;;;;;2.55;1.90;;;27.60;50.00;;;;;;4919998;28;99162;-72
2022/07/05 12:51:40;;;;;;;2.60;1.50;;;27.40;50.00;;;;;;4935671;28;98576;-72
2022/07/05 13:00:19;;;;;;;2.10;1.80;;;27.10;50.00;;;;;;4938334;28;98551;-72
2022/07/05 13:02:46;;;;;;;1.55;1.45;;;27.30;48.90;;;;;;4926163;28;98626;-72
2022/07/05 13:05:25;;;;;;;2.97;1.10;;;27.20;49.10;;;;;;4955551;28;99491;-72
2022/07/05 13:07:54;;;;;;;4.25;1.85;;;27.30;51.50;;;;;;4955774;28;99051;-72
2022/07/05 13:10:31;;;;;;;3.42;1.80;;;27.30;53.40;;;;;;4938763;28;99185;-72
2022/07/05 13:13:05;;;;;;;3.17;1.40;;;27.00;54.20;;;;;;4923454;28;97833;-72